createdAt,value
2023-04-16T00:00:03.296Z,100.00
2023-04-16T00:03:13.556Z,100.00
2023-04-16T00:06:16.561Z,100.00
2023-04-16T00:09:18.941Z,100.00
2023-04-16T00:12:21.841Z,100.00
2023-04-16T00:15:24.116Z,100.00
2023-04-16T00:18:38.122Z,100.00
2023-04-16T00:21:40.937Z,100.00
2023-04-16T00:24:43.651Z,100.00
2023-04-16T00:27:46.065Z,100.00
2023-04-16T00:30:48.863Z,100.00
2023-04-16T00:33:51.262Z,100.00
2023-04-16T00:36:53.892Z,100.00
2023-04-16T00:39:56.205Z,100.00
2023-04-16T00:42:59.198Z,100.00
2023-04-16T00:46:04.263Z,100.00
2023-04-16T00:49:07.817Z,100.00
2023-04-16T00:52:11.778Z,100.00
2023-04-16T00:55:15.217Z,100.00
2023-04-16T00:58:17.584Z,100.00
2023-04-16T01:01:20.322Z,100.00
2023-04-16T01:04:22.927Z,100.00
2023-04-16T01:07:25.674Z,100.00
2023-04-16T01:10:28.055Z,100.00
2023-04-16T01:13:31.084Z,100.00
2023-04-16T01:16:33.415Z,100.00
2023-04-16T01:19:36.399Z,100.00
2023-04-16T01:22:38.777Z,100.00
2023-04-16T01:25:41.484Z,100.00
2023-04-16T01:28:44.253Z,100.00
2023-04-16T01:31:47.122Z,100.00
2023-04-16T01:34:49.771Z,100.00
2023-04-16T01:37:52.626Z,100.00
2023-04-16T01:40:58.038Z,100.00
2023-04-16T01:44:00.683Z,100.00
2023-04-16T01:47:04.253Z,100.00
2023-04-16T01:50:07.271Z,100.00
2023-04-16T01:53:09.752Z,100.00
2023-04-16T01:56:12.387Z,100.00
2023-04-16T01:59:14.667Z,100.00
2023-04-16T02:02:17.711Z,100.00
2023-04-16T02:05:20.320Z,100.00
2023-04-16T02:08:22.904Z,100.00
2023-04-16T02:11:26.494Z,100.00
2023-04-16T02:14:29.761Z,100.00
2023-04-16T02:17:32.359Z,100.00
2023-04-16T02:20:47.342Z,100.00
2023-04-16T02:23:51.724Z,100.00
2023-04-16T02:26:55.384Z,100.00
2023-04-16T02:29:57.785Z,100.00
2023-04-16T02:33:01.930Z,100.00
2023-04-16T02:36:04.518Z,100.00
2023-04-16T02:39:07.906Z,100.00
2023-04-16T02:42:10.696Z,100.00
2023-04-16T02:45:13.387Z,100.00
2023-04-16T02:48:15.697Z,100.00
2023-04-16T02:51:18.412Z,100.00
2023-04-16T02:54:20.646Z,100.00
2023-04-16T02:57:23.255Z,100.00
2023-04-16T03:00:25.666Z,100.00
2023-04-16T03:03:28.225Z,100.00
2023-04-16T03:06:31.440Z,100.00
2023-04-16T03:09:34.159Z,100.00
2023-04-16T03:12:36.414Z,100.00
2023-04-16T03:15:42.058Z,100.00
2023-04-16T03:18:44.459Z,100.00
2023-04-16T03:21:47.099Z,100.00
2023-04-16T03:24:49.403Z,100.00
2023-04-16T03:27:51.879Z,100.00
2023-04-16T03:30:54.655Z,100.00
2023-04-16T03:33:57.645Z,100.00
2023-04-16T03:37:00.326Z,100.00
2023-04-16T03:40:07.150Z,100.00
2023-04-16T03:43:10.059Z,100.00
2023-04-16T03:46:13.079Z,100.00
2023-04-16T03:49:15.484Z,100.00
2023-04-16T03:52:19.038Z,100.00
2023-04-16T03:55:21.571Z,100.00
2023-04-16T03:58:24.340Z,100.00
2023-04-16T04:01:27.169Z,100.00
2023-04-16T04:04:30.039Z,100.00
2023-04-16T04:07:33.165Z,100.00
2023-04-16T04:10:36.236Z,100.00
2023-04-16T04:13:39.167Z,100.00
2023-04-16T04:16:41.867Z,100.00
2023-04-16T04:19:54.281Z,100.00
2023-04-16T04:23:02.934Z,100.00
2023-04-16T04:26:07.518Z,100.00
2023-04-16T04:29:10.836Z,100.00
2023-04-16T04:32:13.712Z,100.00
2023-04-16T04:35:16.301Z,100.00
2023-04-16T04:38:20.114Z,100.00
2023-04-16T04:41:23.126Z,100.00
2023-04-16T04:44:25.538Z,100.00
2023-04-16T04:47:28.491Z,100.00
2023-04-16T04:50:31.540Z,100.00
2023-04-16T04:53:34.714Z,100.00
2023-04-16T04:56:37.152Z,100.00
2023-04-16T04:59:39.707Z,100.00
2023-04-16T05:02:42.333Z,100.00
2023-04-16T05:05:44.981Z,100.00
2023-04-16T05:08:47.693Z,100.00
2023-04-16T05:11:50.465Z,100.00
2023-04-16T05:14:52.881Z,100.00
2023-04-16T05:17:58.494Z,100.00
2023-04-16T05:21:01.231Z,100.00
2023-04-16T05:24:03.855Z,100.00
2023-04-16T05:27:06.587Z,100.00
2023-04-16T05:30:10.160Z,100.00
2023-04-16T05:33:12.708Z,100.00
2023-04-16T05:36:18.696Z,100.00
2023-04-16T05:39:21.287Z,100.00
2023-04-16T05:42:24.006Z,100.00
2023-04-16T05:45:28.024Z,100.00
2023-04-16T05:48:31.224Z,100.00
2023-04-16T05:51:33.596Z,100.00
2023-04-16T05:54:36.208Z,100.00
2023-04-16T05:57:38.576Z,100.00
2023-04-16T06:00:41.454Z,100.00
2023-04-16T06:03:45.381Z,100.00
2023-04-16T06:06:47.894Z,100.00
2023-04-16T06:09:50.606Z,100.00
2023-04-16T06:12:52.920Z,100.00
2023-04-16T06:15:55.967Z,100.00
2023-04-16T06:18:58.670Z,100.00
2023-04-16T06:22:01.606Z,100.00
2023-04-16T06:25:04.350Z,100.00
2023-04-16T06:28:06.908Z,100.00
2023-04-16T06:31:09.631Z,100.00
2023-04-16T06:34:12.284Z,100.00
2023-04-16T06:37:14.701Z,100.00
2023-04-16T06:40:17.358Z,100.00
2023-04-16T06:43:19.865Z,100.00
2023-04-16T06:46:22.519Z,100.00
2023-04-16T06:49:24.836Z,100.00
2023-04-16T06:52:27.579Z,100.00
2023-04-16T06:55:29.849Z,100.00
2023-04-16T06:58:33.033Z,100.00
2023-04-16T07:01:35.479Z,100.00
2023-04-16T07:04:38.251Z,100.00
2023-04-16T07:07:40.620Z,100.00
2023-04-16T07:10:43.293Z,100.00
2023-04-16T07:13:45.792Z,100.00
2023-04-16T07:16:48.523Z,100.00
2023-04-16T07:19:51.641Z,100.00
2023-04-16T07:22:54.231Z,100.00
2023-04-16T07:25:56.596Z,100.00
2023-04-16T07:28:59.352Z,100.00
2023-04-16T07:32:02.058Z,100.00
2023-04-16T07:35:04.959Z,100.00
2023-04-16T07:38:07.246Z,100.00
2023-04-16T07:41:09.948Z,100.00
2023-04-16T07:44:12.330Z,100.00
2023-04-16T07:47:15.006Z,100.00
2023-04-16T07:50:19.406Z,100.00
2023-04-16T07:53:22.234Z,100.00
2023-04-16T07:56:24.519Z,100.00
2023-04-16T07:59:27.803Z,100.00
2023-04-16T08:02:30.885Z,100.00
2023-04-16T08:05:33.609Z,100.00
2023-04-16T08:08:36.303Z,100.00
2023-04-16T08:11:38.924Z,100.00
2023-04-16T08:14:41.486Z,100.00
2023-04-16T08:17:44.503Z,100.00
2023-04-16T08:20:46.779Z,100.00
2023-04-16T08:23:50.009Z,100.00
2023-04-16T08:26:52.491Z,100.00
2023-04-16T08:29:55.320Z,100.00
2023-04-16T08:32:57.791Z,100.00
2023-04-16T08:36:00.417Z,100.00
2023-04-16T08:39:02.717Z,100.00
2023-04-16T08:42:06.415Z,100.00
2023-04-16T08:45:18.243Z,100.00
2023-04-16T08:48:22.148Z,100.00
2023-04-16T08:51:28.158Z,100.00
2023-04-16T08:54:30.747Z,88.39
2023-04-16T08:57:40.902Z,82.10
2023-04-16T09:00:43.737Z,86.10
2023-04-16T09:03:47.481Z,89.16
2023-04-16T09:06:51.162Z,89.34
2023-04-16T09:09:53.848Z,87.99
2023-04-16T09:12:57.110Z,89.78
2023-04-16T09:15:59.898Z,84.14
2023-04-16T09:19:02.753Z,83.47
2023-04-16T09:22:05.040Z,85.27
2023-04-16T09:25:08.200Z,87.31
2023-04-16T09:28:10.956Z,88.44
2023-04-16T09:31:18.156Z,93.26
2023-04-16T09:34:21.010Z,96.42
2023-04-16T09:37:24.199Z,97.50
2023-04-16T09:40:27.533Z,95.73
2023-04-16T09:43:31.951Z,100.00
2023-04-16T09:46:34.876Z,99.62
2023-04-16T09:49:42.038Z,99.28
2023-04-16T09:52:45.877Z,98.33
2023-04-16T09:55:48.522Z,99.62
2023-04-16T09:58:51.091Z,99.93
2023-04-16T10:02:15.735Z,100.00
2023-04-16T10:05:20.192Z,100.00
2023-04-16T10:08:23.898Z,99.68
2023-04-16T10:11:27.105Z,97.53
2023-04-16T10:14:29.499Z,91.20
2023-04-16T10:17:32.649Z,86.80
2023-04-16T10:20:35.368Z,86.37
2023-04-16T10:23:38.822Z,85.63
2023-04-16T10:26:41.236Z,83.04
2023-04-16T10:29:44.667Z,77.55
2023-04-16T10:32:47.660Z,75.85
2023-04-16T10:36:01.388Z,75.81
2023-04-16T10:39:12.165Z,74.86
2023-04-16T10:42:15.659Z,69.08
2023-04-16T10:45:17.936Z,70.45
2023-04-16T10:48:20.672Z,68.78
2023-04-16T10:51:29.464Z,63.08
2023-04-16T10:54:34.333Z,62.97
2023-04-16T10:57:36.878Z,64.65
2023-04-16T11:00:50.927Z,63.49
2023-04-16T11:03:53.564Z,56.16
2023-04-16T11:07:03.219Z,55.86
2023-04-16T11:10:06.642Z,55.63
2023-04-16T11:13:12.336Z,54.58
2023-04-16T11:16:15.942Z,51.28
2023-04-16T11:19:19.096Z,49.73
2023-04-16T11:22:21.457Z,45.31
2023-04-16T11:25:25.051Z,46.17
2023-04-16T11:28:36.811Z,46.79
2023-04-16T11:31:39.605Z,50.06
2023-04-16T11:34:45.990Z,53.11
2023-04-16T11:37:49.004Z,54.93
2023-04-16T11:40:51.802Z,55.85
2023-04-16T11:43:55.304Z,55.77
2023-04-16T11:46:57.689Z,53.86
2023-04-16T11:50:15.627Z,50.55
2023-04-16T11:53:18.065Z,48.94
2023-04-16T11:56:27.512Z,49.62
2023-04-16T11:59:29.928Z,51.18
2023-04-16T12:02:36.549Z,49.01
2023-04-16T12:05:39.692Z,46.19
2023-04-16T12:08:42.712Z,47.39
2023-04-16T12:11:45.563Z,45.17
2023-04-16T12:14:51.038Z,45.72
2023-04-16T12:18:06.803Z,42.44
2023-04-16T12:21:09.216Z,42.75
2023-04-16T12:24:13.578Z,44.12
2023-04-16T12:27:16.399Z,45.44
2023-04-16T12:30:20.059Z,46.27
2023-04-16T12:33:22.400Z,48.51
2023-04-16T12:36:25.292Z,48.04
2023-04-16T12:39:27.639Z,50.50
2023-04-16T12:42:35.695Z,52.35
2023-04-16T12:45:38.765Z,52.03
2023-04-16T12:48:42.677Z,49.35
2023-04-16T12:51:45.322Z,51.74
2023-04-16T12:54:47.982Z,52.61
2023-04-16T12:57:53.251Z,50.73
2023-04-16T13:00:56.291Z,49.73
2023-04-16T13:03:58.714Z,49.70
2023-04-16T13:07:01.513Z,46.37
2023-04-16T13:10:04.268Z,47.70
2023-04-16T13:13:07.042Z,47.66
2023-04-16T13:16:09.584Z,48.49
2023-04-16T13:19:12.416Z,48.31
2023-04-16T13:22:14.977Z,50.42
2023-04-16T13:25:17.650Z,50.11
2023-04-16T13:28:20.106Z,50.56
2023-04-16T13:31:22.918Z,49.41
2023-04-16T13:34:25.440Z,50.70
2023-04-16T13:37:28.064Z,53.32
2023-04-16T13:40:30.613Z,52.95
2023-04-16T13:43:33.444Z,52.80
2023-04-16T13:46:35.837Z,54.25
2023-04-16T13:49:38.598Z,54.05
2023-04-16T13:52:41.227Z,53.80
2023-04-16T13:55:44.191Z,54.52
2023-04-16T13:58:46.613Z,55.23
2023-04-16T14:01:49.457Z,55.03
2023-04-16T14:04:52.180Z,56.62
2023-04-16T14:07:54.428Z,55.45
2023-04-16T14:10:58.110Z,53.67
2023-04-16T14:14:00.940Z,52.49
2023-04-16T14:17:04.306Z,52.95
2023-04-16T14:20:07.058Z,52.83
2023-04-16T14:23:09.694Z,54.62
2023-04-16T14:26:12.119Z,55.50
2023-04-16T14:29:15.604Z,54.24
2023-04-16T14:32:17.995Z,53.03
2023-04-16T14:35:20.919Z,52.52
2023-04-16T14:38:23.263Z,53.26
2023-04-16T14:41:25.885Z,51.89
2023-04-16T14:44:28.414Z,52.32
2023-04-16T14:47:31.046Z,50.24
2023-04-16T14:50:43.524Z,51.55
2023-04-16T14:53:46.235Z,51.58
2023-04-16T14:56:49.274Z,50.47
2023-04-16T14:59:51.841Z,49.46
2023-04-16T15:02:57.852Z,50.39
2023-04-16T15:06:00.634Z,49.33
2023-04-16T15:09:04.025Z,48.66
2023-04-16T15:12:06.952Z,49.98
2023-04-16T15:15:09.579Z,49.33
2023-04-16T15:18:12.184Z,50.44
2023-04-16T15:21:16.741Z,49.66
2023-04-16T15:24:19.373Z,49.95
2023-04-16T15:27:21.692Z,49.36
2023-04-16T15:30:24.425Z,49.21
2023-04-16T15:33:26.852Z,48.92
2023-04-16T15:36:29.486Z,49.40
2023-04-16T15:39:31.871Z,48.36
2023-04-16T15:42:34.645Z,49.09
2023-04-16T15:45:37.529Z,48.58
2023-04-16T15:48:40.278Z,48.49
2023-04-16T15:51:42.655Z,47.83
2023-04-16T15:54:45.756Z,49.42
2023-04-16T15:57:48.072Z,49.58
2023-04-16T16:00:50.977Z,49.85
2023-04-16T16:03:53.917Z,50.60
2023-04-16T16:06:56.340Z,51.70
2023-04-16T16:09:59.228Z,52.06
2023-04-16T16:13:05.387Z,53.38
2023-04-16T16:16:08.027Z,54.06
2023-04-16T16:19:11.125Z,54.78
2023-04-16T16:22:14.006Z,55.19
2023-04-16T16:25:16.698Z,55.15
2023-04-16T16:28:19.370Z,55.68
2023-04-16T16:31:21.678Z,56.12
2023-04-16T16:34:24.255Z,55.82
2023-04-16T16:37:26.722Z,55.64
2023-04-16T16:40:30.509Z,56.71
2023-04-16T16:43:33.253Z,56.42
2023-04-16T16:46:36.750Z,56.87
2023-04-16T16:49:39.114Z,57.32
2023-04-16T16:52:42.009Z,57.31
2023-04-16T16:55:44.427Z,57.53
2023-04-16T16:58:47.306Z,57.25
2023-04-16T17:01:49.892Z,57.48
2023-04-16T17:04:52.898Z,57.86
2023-04-16T17:07:55.140Z,58.06
2023-04-16T17:10:57.800Z,58.87
2023-04-16T17:14:00.171Z,59.45
2023-04-16T17:17:02.811Z,59.77
2023-04-16T17:20:10.813Z,61.13
2023-04-16T17:23:14.108Z,62.33
2023-04-16T17:26:16.391Z,62.07
2023-04-16T17:29:20.779Z,61.33
2023-04-16T17:32:23.216Z,61.83
2023-04-16T17:35:26.028Z,62.65
2023-04-16T17:38:28.366Z,63.83
2023-04-16T17:41:31.125Z,66.89
2023-04-16T17:44:33.713Z,67.81
2023-04-16T17:47:36.603Z,69.28
2023-04-16T17:50:39.710Z,69.55
2023-04-16T17:53:43.569Z,70.60
2023-04-16T17:56:46.272Z,72.21
2023-04-16T17:59:48.911Z,73.41
2023-04-16T18:02:52.464Z,75.12
2023-04-16T18:05:55.235Z,77.23
2023-04-16T18:08:57.752Z,77.97
2023-04-16T18:12:01.348Z,79.84
2023-04-16T18:15:04.142Z,81.28
2023-04-16T18:18:07.088Z,83.39
2023-04-16T18:21:09.377Z,85.50
2023-04-16T18:24:12.203Z,87.86
2023-04-16T18:27:14.847Z,89.23
2023-04-16T18:30:25.110Z,91.58
2023-04-16T18:33:49.988Z,91.17
2023-04-16T18:36:52.049Z,93.83
2023-04-16T18:39:55.571Z,96.79
2023-04-16T18:43:00.067Z,97.52
2023-04-16T18:46:02.531Z,98.52
2023-04-16T18:49:05.460Z,97.31
2023-04-16T18:52:08.752Z,98.22
2023-04-16T18:55:11.424Z,98.55
2023-04-16T18:58:13.662Z,97.89
2023-04-16T19:01:16.542Z,97.85
2023-04-16T19:04:19.532Z,98.44
2023-04-16T19:07:22.111Z,100.00
2023-04-16T19:10:24.542Z,97.50
2023-04-16T19:13:32.481Z,98.36
2023-04-16T19:16:35.164Z,97.56
2023-04-16T19:19:37.680Z,97.41
2023-04-16T19:22:40.102Z,99.23
2023-04-16T19:25:42.655Z,100.00
2023-04-16T19:28:46.012Z,100.00
2023-04-16T19:31:48.807Z,100.00
2023-04-16T19:34:51.138Z,100.00
2023-04-16T19:37:56.263Z,100.00
2023-04-16T19:40:58.657Z,100.00
2023-04-16T19:44:01.608Z,100.00
2023-04-16T19:47:04.212Z,100.00
2023-04-16T19:50:07.930Z,100.00
2023-04-16T19:53:11.008Z,98.79
2023-04-16T19:56:14.131Z,99.50
2023-04-16T19:59:17.379Z,98.74
2023-04-16T20:02:20.063Z,99.83
2023-04-16T20:05:22.881Z,100.00
2023-04-16T20:08:25.233Z,100.00
2023-04-16T20:11:28.722Z,100.00
2023-04-16T20:14:31.124Z,100.00
2023-04-16T20:17:33.749Z,98.61
2023-04-16T20:20:37.819Z,99.26
2023-04-16T20:23:40.594Z,97.93
2023-04-16T20:26:42.974Z,98.71
2023-04-16T20:29:45.816Z,98.61
2023-04-16T20:32:48.456Z,97.34
2023-04-16T20:35:52.217Z,98.11
2023-04-16T20:38:54.537Z,97.99
2023-04-16T20:41:57.171Z,95.49
2023-04-16T20:45:00.709Z,95.87
2023-04-16T20:48:03.929Z,98.29
2023-04-16T20:51:07.668Z,97.58
2023-04-16T20:54:10.408Z,96.98
2023-04-16T20:57:12.742Z,96.24
2023-04-16T21:00:16.574Z,97.37
2023-04-16T21:03:19.521Z,97.97
2023-04-16T21:06:22.578Z,98.13
2023-04-16T21:09:25.060Z,99.10
2023-04-16T21:12:27.697Z,99.25
2023-04-16T21:15:30.976Z,100.00
2023-04-16T21:18:34.863Z,100.00
2023-04-16T21:21:38.314Z,100.00
2023-04-16T21:24:41.061Z,100.00
2023-04-16T21:27:43.472Z,100.00
2023-04-16T21:30:46.211Z,100.00
2023-04-16T21:33:48.628Z,100.00
2023-04-16T21:36:51.170Z,100.00
2023-04-16T21:39:53.552Z,100.00
2023-04-16T21:42:56.360Z,100.00
2023-04-16T21:45:59.439Z,100.00
2023-04-16T21:49:02.118Z,100.00
2023-04-16T21:52:04.906Z,100.00
2023-04-16T21:55:09.160Z,100.00
2023-04-16T21:58:11.452Z,100.00
2023-04-16T22:01:14.243Z,100.00
2023-04-16T22:04:17.834Z,100.00
2023-04-16T22:07:20.806Z,100.00
2023-04-16T22:10:23.516Z,100.00
2023-04-16T22:13:29.914Z,100.00
2023-04-16T22:16:33.520Z,100.00
2023-04-16T22:19:37.358Z,100.00
2023-04-16T22:22:41.061Z,100.00
2023-04-16T22:25:43.588Z,100.00
2023-04-16T22:28:46.606Z,100.00
2023-04-16T22:31:49.042Z,100.00
2023-04-16T22:34:52.306Z,100.00
2023-04-16T22:37:54.787Z,100.00
2023-04-16T22:40:57.438Z,99.86
2023-04-16T22:43:59.895Z,100.00
2023-04-16T22:47:02.538Z,100.00
2023-04-16T22:50:06.284Z,100.00
2023-04-16T22:53:09.002Z,100.00
2023-04-16T22:56:11.886Z,100.00
2023-04-16T22:59:14.552Z,100.00
2023-04-16T23:02:17.433Z,100.00
2023-04-16T23:05:20.330Z,100.00
2023-04-16T23:08:22.801Z,100.00
2023-04-16T23:11:25.543Z,100.00
2023-04-16T23:14:28.301Z,100.00
2023-04-16T23:17:31.129Z,100.00
2023-04-16T23:20:33.613Z,100.00
2023-04-16T23:23:36.702Z,100.00
2023-04-16T23:26:39.004Z,100.00
2023-04-16T23:29:42.104Z,100.00
2023-04-16T23:32:45.988Z,100.00
2023-04-16T23:35:48.724Z,100.00
2023-04-16T23:38:51.079Z,100.00
2023-04-16T23:41:53.709Z,100.00
2023-04-16T23:44:56.122Z,100.00
2023-04-16T23:47:58.970Z,100.00
2023-04-16T23:51:01.318Z,100.00
2023-04-16T23:54:04.188Z,100.00
2023-04-16T23:57:06.588Z,100.00
